createdAt,value
2019-04-20T00:01:48.012Z,12.80
2019-04-20T00:04:24.405Z,12.70
2019-04-20T00:06:51.659Z,12.80
2019-04-20T00:09:24.662Z,12.70
2019-04-20T00:12:02.771Z,12.50
2019-04-20T00:14:26.102Z,12.40
2019-04-20T00:16:53.061Z,12.40
2019-04-20T00:19:31.326Z,12.50
2019-04-20T00:22:02.045Z,12.40
2019-04-20T00:24:51.592Z,12.40
2019-04-20T00:27:37.064Z,12.30
2019-04-20T00:30:03.983Z,12.40
2019-04-20T00:32:37.647Z,12.40
2019-04-20T00:34:53.662Z,12.40
2019-04-20T00:37:23.419Z,12.30
2019-04-20T00:39:53.075Z,12.30
2019-04-20T00:42:31.139Z,12.30
2019-04-20T00:45:02.281Z,12.30
2019-04-20T00:47:38.428Z,12.20
2019-04-20T00:50:05.556Z,12.10
2019-04-20T00:52:44.154Z,12.10
2019-04-20T00:54:58.151Z,12.00
2019-04-20T00:57:36.886Z,12.00
2019-04-20T01:00:20.207Z,12.00
2019-04-20T01:02:40.544Z,12.00
2019-04-20T01:05:18.075Z,12.00
2019-04-20T01:07:49.568Z,12.00
2019-04-20T01:10:15.099Z,11.90
2019-04-20T01:12:45.787Z,11.90
2019-04-20T01:15:24.527Z,11.80
2019-04-20T01:17:46.770Z,11.80
2019-04-20T01:20:16.237Z,11.70
2019-04-20T01:22:53.582Z,11.80
2019-04-20T01:25:24.911Z,11.80
2019-04-20T01:28:17.734Z,11.70
2019-04-20T01:30:28.464Z,11.60
2019-04-20T01:33:06.249Z,11.70
2019-04-20T01:35:40.927Z,11.70
2019-04-20T01:38:12.475Z,11.60
2019-04-20T01:40:23.312Z,11.50
2019-04-20T01:42:53.245Z,11.50
2019-04-20T01:45:29.356Z,11.40
2019-04-20T01:47:56.251Z,11.40
2019-04-20T01:50:28.381Z,11.40
2019-04-20T01:53:08.276Z,11.40
2019-04-20T01:55:57.190Z,11.40
2019-04-20T01:58:37.825Z,11.40
2019-04-20T02:01:00.392Z,11.40
2019-04-20T02:03:40.366Z,11.30
2019-04-20T02:06:18.287Z,11.30
2019-04-20T02:08:46.296Z,11.30
2019-04-20T02:11:21.968Z,11.20
2019-04-20T02:13:53.385Z,11.20
2019-04-20T02:16:27.273Z,11.20
2019-04-20T02:19:08.229Z,11.20
2019-04-20T02:21:38.207Z,11.10
2019-04-20T02:23:57.987Z,11.10
2019-04-20T02:26:23.987Z,11.20
2019-04-20T02:29:20.294Z,11.30
2019-04-20T02:37:24.583Z,11.10
2019-04-20T02:39:55.884Z,11.10
2019-04-20T02:42:22.656Z,11.00
2019-04-20T02:44:59.435Z,11.00
2019-04-20T02:47:30.656Z,10.90
2019-04-20T02:55:04.140Z,10.70
2019-04-20T02:57:32.655Z,10.70
2019-04-20T03:02:18.125Z,10.90
2019-04-20T03:04:40.257Z,10.80
2019-04-20T03:07:15.335Z,10.80
2019-04-20T03:09:50.142Z,10.70
2019-04-20T03:12:29.154Z,10.70
2019-04-20T03:14:52.782Z,10.60
2019-04-20T03:17:29.827Z,10.60
2019-04-20T03:19:53.658Z,10.60
2019-04-20T03:22:46.652Z,10.60
2019-04-20T03:25:07.912Z,10.50
2019-04-20T03:27:30.883Z,10.40
2019-04-20T03:30:28.706Z,10.40
2019-04-20T03:35:35.488Z,10.30
2019-04-20T03:38:01.554Z,10.30
2019-04-20T03:40:09.857Z,10.30
2019-04-20T03:42:25.180Z,10.20
2019-04-20T03:45:00.502Z,10.20
2019-04-20T03:47:36.985Z,10.20
2019-04-20T03:50:19.969Z,10.10
2019-04-20T03:52:57.841Z,10.10
2019-04-20T03:55:34.283Z,10.10
2019-04-20T03:58:10.748Z,10.10
2019-04-20T04:00:50.773Z,10.10
2019-04-20T04:03:47.557Z,10.10
2019-04-20T04:06:05.239Z,10.10
2019-04-20T04:08:32.860Z,10.10
2019-04-20T04:11:15.974Z,10.10
2019-04-20T04:13:27.080Z,10.10
2019-04-20T04:16:02.829Z,10.10
2019-04-20T04:18:34.669Z,10.10
2019-04-20T04:21:03.898Z,10.00
2019-04-20T04:23:44.445Z,9.90
2019-04-20T04:26:17.289Z,9.90
2019-04-20T04:28:47.441Z,9.80
2019-04-20T04:31:24.687Z,9.80
2019-04-20T04:36:21.202Z,9.80
2019-04-20T04:38:57.083Z,9.90
2019-04-20T04:41:26.763Z,9.90
2019-04-20T04:44:01.413Z,10.00
2019-04-20T04:46:10.396Z,10.00
2019-04-20T04:48:43.897Z,9.90
2019-04-20T04:51:19.738Z,10.00
2019-04-20T04:53:52.963Z,10.00
2019-04-20T04:56:18.098Z,10.00
2019-04-20T04:58:44.688Z,10.00
2019-04-20T05:01:20.623Z,10.10
2019-04-20T05:04:12.751Z,10.20
2019-04-20T05:06:31.748Z,10.10
2019-04-20T05:08:54.986Z,10.20
2019-04-20T05:11:21.746Z,10.20
2019-04-20T05:13:58.455Z,10.20
2019-04-20T05:16:41.593Z,10.20
2019-04-20T05:21:53.563Z,10.20
2019-04-20T05:24:25.611Z,10.30
2019-04-20T05:27:07.252Z,10.20
2019-04-20T05:29:23.606Z,10.30
2019-04-20T05:31:51.800Z,10.20
2019-04-20T05:34:40.056Z,10.30
2019-04-20T05:37:17.614Z,10.30
2019-04-20T05:39:38.178Z,10.30
2019-04-20T05:42:16.452Z,10.30
2019-04-20T05:44:45.794Z,10.30
2019-04-20T05:47:19.638Z,10.50
2019-04-20T05:49:45.070Z,10.60
2019-04-20T05:52:31.743Z,10.70
2019-04-20T05:54:51.364Z,10.70
2019-04-20T05:57:25.054Z,10.80
2019-04-20T05:59:55.991Z,10.90
2019-04-20T06:02:22.620Z,10.90
2019-04-20T06:07:26.755Z,11.00
2019-04-20T06:10:02.001Z,11.10
2019-04-20T06:12:32.041Z,11.20
2019-04-20T06:14:55.959Z,11.20
2019-04-20T06:17:42.108Z,11.20
2019-04-20T06:20:16.876Z,11.30
2019-04-20T06:22:43.070Z,11.40
2019-04-20T06:25:31.260Z,11.40
2019-04-20T06:27:47.155Z,11.50
2019-04-20T06:30:11.187Z,11.60
2019-04-20T06:33:55.244Z,11.60
2019-04-20T06:38:58.822Z,11.80
2019-04-20T06:41:30.209Z,11.90
2019-04-20T06:43:48.741Z,12.00
2019-04-20T06:46:15.128Z,12.00
2019-04-20T06:48:52.400Z,12.10
2019-04-20T06:51:22.243Z,12.20
2019-04-20T06:53:51.571Z,12.30
2019-04-20T06:56:29.816Z,12.40
2019-04-20T06:59:06.909Z,12.40
2019-04-20T07:01:42.220Z,12.60
2019-04-20T07:04:21.194Z,12.70
2019-04-20T07:09:38.646Z,12.80
2019-04-20T07:11:39.051Z,12.90
2019-04-20T07:13:54.382Z,13.00
2019-04-20T07:16:49.333Z,13.10
2019-04-20T07:19:20.401Z,13.10
2019-04-20T07:24:41.474Z,13.40
2019-04-20T07:27:06.156Z,13.50
2019-04-20T07:29:47.522Z,13.60
2019-04-20T07:32:07.522Z,13.60
2019-04-20T07:34:50.457Z,13.70
2019-04-20T07:37:43.218Z,13.80
2019-04-20T07:39:48.680Z,13.90
2019-04-20T07:42:24.257Z,14.00
2019-04-20T07:44:56.784Z,14.20
2019-04-20T07:47:32.379Z,14.30
2019-04-20T07:49:52.607Z,14.40
2019-04-20T07:52:02.461Z,14.50
2019-04-20T07:55:12.130Z,14.50
2019-04-20T07:57:21.585Z,14.70
2019-04-20T07:59:53.904Z,14.90
2019-04-20T08:02:40.818Z,15.00
2019-04-20T08:05:09.467Z,15.20
2019-04-20T08:07:36.144Z,15.20
2019-04-20T08:10:00.423Z,15.30
2019-04-20T08:12:54.105Z,15.40
2019-04-20T08:15:32.486Z,15.60
2019-04-20T08:17:56.527Z,15.70
2019-04-20T08:20:20.759Z,15.80
2019-04-20T08:22:53.133Z,15.90
2019-04-20T08:25:14.219Z,16.10
2019-04-20T08:27:44.468Z,16.10
2019-04-20T08:30:33.950Z,16.10
2019-04-20T08:33:04.200Z,16.20
2019-04-20T08:35:46.445Z,16.30
2019-04-20T08:38:36.886Z,16.30
2019-04-20T08:40:43.562Z,16.50
2019-04-20T08:43:36.861Z,16.60
2019-04-20T08:45:49.482Z,16.70
2019-04-20T08:48:20.243Z,16.80
2019-04-20T08:50:44.981Z,16.90
2019-04-20T08:53:27.873Z,17.10
2019-04-20T08:55:45.064Z,17.20
2019-04-20T08:58:00.255Z,17.30
2019-04-20T09:00:35.939Z,17.50
2019-04-20T09:03:09.411Z,17.70
2019-04-20T09:05:42.483Z,17.70
2019-04-20T09:08:14.420Z,17.80
2019-04-20T09:10:48.250Z,18.00
2019-04-20T09:13:15.987Z,18.10
2019-04-20T09:15:36.333Z,18.20
2019-04-20T09:18:20.964Z,18.20
2019-04-20T09:20:48.694Z,18.10
2019-04-20T09:23:27.303Z,18.20
2019-04-20T09:26:07.039Z,18.40
2019-04-20T09:28:32.299Z,18.50
2019-04-20T09:31:18.575Z,18.60
2019-04-20T09:34:02.750Z,18.60
2019-04-20T09:36:30.763Z,18.80
2019-04-20T09:39:16.478Z,19.00
2019-04-20T09:42:00.822Z,19.10
2019-04-20T09:44:30.367Z,19.20
2019-04-20T09:46:59.203Z,19.20
2019-04-20T09:49:40.307Z,19.40
2019-04-20T09:52:13.408Z,19.70
2019-04-20T09:54:48.110Z,20.00
2019-04-20T09:57:22.637Z,20.30
2019-04-20T09:59:50.090Z,20.50
2019-04-20T10:02:13.171Z,20.50
2019-04-20T10:04:33.681Z,20.70
2019-04-20T10:07:11.188Z,21.00
2019-04-20T10:09:38.245Z,20.80
2019-04-20T10:12:05.728Z,21.00
2019-04-20T10:14:35.265Z,21.40
2019-04-20T10:17:05.716Z,21.80
2019-04-20T10:19:38.183Z,21.60
2019-04-20T10:22:06.701Z,21.60
2019-04-20T10:24:36.878Z,21.90
2019-04-20T10:27:06.629Z,22.20
2019-04-20T10:29:35.948Z,22.40
2019-04-20T10:32:07.771Z,22.80
2019-04-20T10:34:36.815Z,23.30
2019-04-20T10:37:09.270Z,23.30
2019-04-20T10:39:40.524Z,23.10
2019-04-20T10:42:10.203Z,22.80
2019-04-20T10:44:40.893Z,23.20
2019-04-20T10:47:11.380Z,23.50
2019-04-20T10:49:41.298Z,24.20
2019-04-20T10:52:11.662Z,24.50
2019-04-20T10:54:42.654Z,25.00
2019-04-20T10:57:13.290Z,24.70
2019-04-20T10:59:43.708Z,24.30
2019-04-20T11:02:13.991Z,24.40
2019-04-20T11:04:44.360Z,24.30
2019-04-20T11:07:14.643Z,24.00
2019-04-20T11:09:44.830Z,24.00
2019-04-20T11:12:14.610Z,24.50
2019-04-20T11:14:45.620Z,25.10
2019-04-20T11:17:16.244Z,25.50
2019-04-20T11:19:45.900Z,26.00
2019-04-20T11:22:16.671Z,25.60
2019-04-20T11:24:46.448Z,25.60
2019-04-20T11:27:16.313Z,25.50
2019-04-20T11:29:46.399Z,25.30
2019-04-20T11:32:15.989Z,25.10
2019-04-20T11:34:45.528Z,25.40
2019-04-20T11:37:15.263Z,25.70
2019-04-20T11:39:45.365Z,25.90
2019-04-20T11:42:14.679Z,26.20
2019-04-20T11:44:44.785Z,26.40
2019-04-20T11:47:14.753Z,27.10
2019-04-20T11:49:45.729Z,27.90
2019-04-20T11:52:18.355Z,28.10
2019-04-20T11:54:46.472Z,28.00
2019-04-20T11:57:15.935Z,27.60
2019-04-20T11:59:45.586Z,28.10
2019-04-20T12:02:30.155Z,28.90
2019-04-20T12:05:12.824Z,29.10
2019-04-20T12:07:35.250Z,29.40
2019-04-20T12:10:13.527Z,29.50
2019-04-20T12:12:42.476Z,29.50
2019-04-20T12:15:08.657Z,29.90
2019-04-20T12:17:39.715Z,30.30
2019-04-20T12:20:10.122Z,30.30
2019-04-20T12:22:40.034Z,29.90
2019-04-20T12:25:10.022Z,30.10
2019-04-20T12:27:41.978Z,31.30
2019-04-20T12:30:12.113Z,32.20
2019-04-20T12:32:45.010Z,33.60
2019-04-20T12:35:14.105Z,35.00
2019-04-20T12:37:45.101Z,36.60
2019-04-20T12:40:14.696Z,38.20
2019-04-20T12:42:44.291Z,38.40
2019-04-20T12:45:15.600Z,39.00
2019-04-20T12:47:46.980Z,39.70
2019-04-20T12:50:17.323Z,39.70
2019-04-20T12:52:48.316Z,40.60
2019-04-20T12:55:18.820Z,40.70
2019-04-20T12:57:48.271Z,41.30
2019-04-20T13:00:17.859Z,40.10
2019-04-20T13:02:47.430Z,39.90
2019-04-20T13:05:17.587Z,40.20
2019-04-20T13:07:51.800Z,41.50
2019-04-20T13:10:18.331Z,42.00
2019-04-20T13:12:56.413Z,41.90
2019-04-20T13:15:42.956Z,42.00
2019-04-20T13:18:14.985Z,42.50
2019-04-20T13:20:45.858Z,41.50
2019-04-20T13:23:15.506Z,40.80
2019-04-20T13:25:44.968Z,40.90
2019-04-20T13:28:14.789Z,41.80
2019-04-20T13:30:44.376Z,42.20
2019-04-20T13:33:14.172Z,42.50
2019-04-20T13:35:44.116Z,42.50
2019-04-20T13:38:14.148Z,42.40
2019-04-20T13:40:44.014Z,41.90
2019-04-20T13:43:13.905Z,40.50
2019-04-20T13:45:44.719Z,40.40
2019-04-20T13:48:15.120Z,40.50
2019-04-20T13:50:46.297Z,39.70
2019-04-20T13:53:15.856Z,40.00
2019-04-20T13:55:47.722Z,39.50
2019-04-20T13:58:35.953Z,39.80
2019-04-20T14:01:23.518Z,39.80
2019-04-20T14:04:00.771Z,40.30
2019-04-20T14:06:30.489Z,40.50
2019-04-20T14:09:01.189Z,41.20
2019-04-20T14:11:31.506Z,41.10
2019-04-20T14:14:04.511Z,40.90
2019-04-20T14:16:32.304Z,40.90
2019-04-20T14:19:03.015Z,40.80
2019-04-20T14:21:32.621Z,41.10
2019-04-20T14:24:04.130Z,40.60
2019-04-20T14:26:36.108Z,38.50
2019-04-20T14:29:05.067Z,38.50
2019-04-20T14:31:35.197Z,38.20
2019-04-20T14:34:04.957Z,38.40
2019-04-20T14:36:34.939Z,37.70
2019-04-20T14:39:07.170Z,38.10
2019-04-20T14:41:36.583Z,38.30
2019-04-20T14:44:05.974Z,37.70
2019-04-20T14:46:35.877Z,36.90
2019-04-20T14:49:06.907Z,36.40
2019-04-20T14:51:37.506Z,35.90
2019-04-20T14:54:07.508Z,35.90
2019-04-20T14:56:37.770Z,35.70
2019-04-20T14:59:09.636Z,35.40
2019-04-20T15:01:41.122Z,35.10
2019-04-20T15:04:16.354Z,34.80
2019-04-20T15:06:42.459Z,34.50
2019-04-20T15:09:12.905Z,34.20
2019-04-20T15:11:44.246Z,33.60
2019-04-20T15:14:14.549Z,33.30
2019-04-20T15:16:44.615Z,33.50
2019-04-20T15:19:15.785Z,33.50
2019-04-20T15:21:47.418Z,33.80
2019-04-20T15:24:17.798Z,32.90
2019-04-20T15:26:48.658Z,32.10
2019-04-20T15:29:18.343Z,31.00
2019-04-20T15:31:48.218Z,30.70
2019-04-20T15:34:17.597Z,31.10
2019-04-20T15:36:47.430Z,30.40
2019-04-20T15:39:17.289Z,29.80
2019-04-20T15:41:47.296Z,30.00
2019-04-20T15:44:17.499Z,30.30
2019-04-20T15:46:47.290Z,30.20
2019-04-20T15:49:17.946Z,29.60
2019-04-20T15:51:47.857Z,29.30
2019-04-20T15:54:17.849Z,29.30
2019-04-20T15:56:56.059Z,29.30
2019-04-20T15:59:18.514Z,29.40
2019-04-20T16:01:49.585Z,29.20
2019-04-20T16:04:39.831Z,28.90
2019-04-20T16:07:08.612Z,28.60
2019-04-20T16:09:38.202Z,28.80
2019-04-20T16:12:08.918Z,28.80
2019-04-20T16:14:39.519Z,28.40
2019-04-20T16:17:12.028Z,28.30
2019-04-20T16:19:49.174Z,28.20
2019-04-20T16:22:12.126Z,27.70
2019-04-20T16:24:46.850Z,27.30
2019-04-20T16:27:27.710Z,27.20
2019-04-20T16:29:57.780Z,27.40
2019-04-20T16:32:27.393Z,27.00
2019-04-20T16:34:56.639Z,27.00
2019-04-20T16:37:26.470Z,27.00
2019-04-20T16:39:56.638Z,27.00
2019-04-20T16:42:26.682Z,26.80
2019-04-20T16:44:56.964Z,26.70
2019-04-20T16:47:27.845Z,26.70
2019-04-20T16:49:57.604Z,26.50
2019-04-20T16:52:27.066Z,26.20
2019-04-20T16:54:57.688Z,25.50
2019-04-20T16:57:27.821Z,24.80
2019-04-20T16:59:59.295Z,24.30
2019-04-20T17:02:29.937Z,24.20
2019-04-20T17:05:00.853Z,24.00
2019-04-20T17:07:35.108Z,23.90
2019-04-20T17:10:11.910Z,23.90
2019-04-20T17:12:41.940Z,23.70
2019-04-20T17:15:11.861Z,23.70
2019-04-20T17:17:41.480Z,23.40
2019-04-20T17:20:11.432Z,23.00
2019-04-20T17:22:42.218Z,22.60
2019-04-20T17:25:12.280Z,22.30
2019-04-20T17:27:53.050Z,22.00
2019-04-20T17:30:26.695Z,21.80
2019-04-20T17:33:06.523Z,21.50
2019-04-20T17:35:50.637Z,21.40
2019-04-20T17:38:07.028Z,21.30
2019-04-20T17:40:59.098Z,21.30
2019-04-20T17:43:17.894Z,21.20
2019-04-20T17:45:49.684Z,21.20
2019-04-20T17:48:25.546Z,21.10
2019-04-20T17:51:05.162Z,21.00
2019-04-20T17:53:24.013Z,20.80
2019-04-20T17:55:53.486Z,20.70
2019-04-20T17:58:27.926Z,20.60
2019-04-20T18:01:00.300Z,20.60
2019-04-20T18:04:03.232Z,20.50
2019-04-20T18:06:19.906Z,20.40
2019-04-20T18:08:50.584Z,20.30
2019-04-20T18:11:11.563Z,20.20
2019-04-20T18:13:37.723Z,20.20
2019-04-20T18:16:32.065Z,20.10
2019-04-20T18:19:03.465Z,20.00
2019-04-20T18:21:26.806Z,19.90
2019-04-20T18:23:56.309Z,19.80
2019-04-20T18:26:45.106Z,19.80
2019-04-20T18:29:16.705Z,19.70
2019-04-20T18:31:45.348Z,19.60
2019-04-20T18:34:20.831Z,19.60
2019-04-20T18:36:49.150Z,19.50
2019-04-20T18:39:27.694Z,19.50
2019-04-20T18:41:55.461Z,19.40
2019-04-20T18:44:27.697Z,19.30
2019-04-20T18:47:13.873Z,19.20
2019-04-20T18:49:35.078Z,19.00
2019-04-20T18:51:55.644Z,18.90
2019-04-20T18:54:28.796Z,18.70
2019-04-20T18:56:58.008Z,18.60
2019-04-20T18:59:35.361Z,18.50
2019-04-20T19:01:59.247Z,18.40
2019-04-20T19:04:30.051Z,18.30
2019-04-20T19:07:19.756Z,18.20
2019-04-20T19:09:55.188Z,18.20
2019-04-20T19:12:28.491Z,18.10
2019-04-20T19:15:30.421Z,18.00
2019-04-20T19:17:57.000Z,17.90
2019-04-20T19:20:18.377Z,17.80
2019-04-20T19:22:48.224Z,17.70
2019-04-20T19:25:25.700Z,17.50
2019-04-20T19:27:53.869Z,17.30
2019-04-20T19:30:34.479Z,17.10
2019-04-20T19:33:08.980Z,17.10
2019-04-20T19:35:33.651Z,17.00
2019-04-20T19:38:06.565Z,16.80
2019-04-20T19:40:40.709Z,16.60
2019-04-20T19:43:08.556Z,16.50
2019-04-20T19:45:53.346Z,16.40
2019-04-20T19:48:15.457Z,16.30
2019-04-20T19:50:57.633Z,16.30
2019-04-20T19:53:26.315Z,16.20
2019-04-20T19:55:51.537Z,16.20
2019-04-20T19:58:18.903Z,16.20
2019-04-20T20:00:52.123Z,16.20
2019-04-20T20:03:21.962Z,16.10
2019-04-20T20:05:52.887Z,16.10
2019-04-20T20:08:25.911Z,16.10
2019-04-20T20:10:56.349Z,16.00
2019-04-20T20:13:36.112Z,16.00
2019-04-20T20:16:02.376Z,16.00
2019-04-20T20:18:39.295Z,15.90
2019-04-20T20:21:11.082Z,15.80
2019-04-20T20:23:30.120Z,15.80
2019-04-20T20:26:02.449Z,15.70
2019-04-20T20:28:40.361Z,15.60
2019-04-20T20:31:12.834Z,15.60
2019-04-20T20:33:49.835Z,15.50
2019-04-20T20:36:11.721Z,15.50
2019-04-20T20:38:42.549Z,15.40
2019-04-20T20:41:16.654Z,15.30
2019-04-20T20:43:51.215Z,15.30
2019-04-20T20:46:21.605Z,15.30
2019-04-20T20:49:04.732Z,15.10
2019-04-20T20:51:35.697Z,15.00
2019-04-20T20:53:54.374Z,14.90
2019-04-20T20:56:22.596Z,14.90
2019-04-20T20:58:58.009Z,14.80
2019-04-20T21:01:23.708Z,14.70
2019-04-20T21:03:52.157Z,14.70
2019-04-20T21:06:20.288Z,14.70
2019-04-20T21:08:54.207Z,14.60
2019-04-20T21:11:27.126Z,14.60
2019-04-20T21:13:54.043Z,14.60
2019-04-20T21:16:28.823Z,14.50
2019-04-20T21:19:16.000Z,14.40
2019-04-20T21:21:38.489Z,14.40
2019-04-20T21:24:07.503Z,14.40
2019-04-20T21:26:37.585Z,14.40
2019-04-20T21:29:03.939Z,14.30
2019-04-20T21:31:34.414Z,14.20
2019-04-20T21:34:10.108Z,14.20
2019-04-20T21:36:35.223Z,14.20
2019-04-20T21:39:09.927Z,14.10
2019-04-20T21:41:41.713Z,14.00
2019-04-20T21:44:18.465Z,14.00
2019-04-20T21:46:46.760Z,14.00
2019-04-20T21:49:29.112Z,13.90
2019-04-20T21:51:50.223Z,13.90
2019-04-20T21:54:14.286Z,13.80
2019-04-20T21:56:49.882Z,13.80
2019-04-20T21:59:24.261Z,13.80
2019-04-20T22:01:56.346Z,13.80
2019-04-20T22:04:19.863Z,13.80
2019-04-20T22:06:48.438Z,13.80
2019-04-20T22:09:18.211Z,13.80
2019-04-20T22:11:49.492Z,13.70
2019-04-20T22:14:22.903Z,13.70
2019-04-20T22:16:53.807Z,13.70
2019-04-20T22:19:34.259Z,13.60
2019-04-20T22:22:02.533Z,13.60
2019-04-20T22:24:39.959Z,13.50
2019-04-20T22:27:07.794Z,13.50
2019-04-20T22:29:26.301Z,13.40
2019-04-20T22:32:02.778Z,13.40
2019-04-20T22:34:28.419Z,13.40
2019-04-20T22:36:58.203Z,13.40
2019-04-20T22:39:39.814Z,13.30
2019-04-20T22:42:09.045Z,13.30
2019-04-20T22:44:36.290Z,13.20
2019-04-20T22:47:13.902Z,13.10
2019-04-20T22:49:50.175Z,13.00
2019-04-20T22:52:26.945Z,13.00
2019-04-20T22:54:55.073Z,13.00
2019-04-20T22:57:27.764Z,13.00
2019-04-20T22:59:52.342Z,12.90
2019-04-20T23:02:13.554Z,12.90
2019-04-20T23:04:44.594Z,12.90
2019-04-20T23:07:14.748Z,12.90
2019-04-20T23:09:50.854Z,12.80
2019-04-20T23:12:19.619Z,12.80
2019-04-20T23:14:46.633Z,12.70
2019-04-20T23:17:23.456Z,12.70
2019-04-20T23:19:52.130Z,12.60
2019-04-20T23:22:19.186Z,12.60
2019-04-20T23:24:49.217Z,12.60
2019-04-20T23:27:24.462Z,12.50
2019-04-20T23:29:51.049Z,12.40
2019-04-20T23:32:21.427Z,12.40
2019-04-20T23:35:16.360Z,12.40
2019-04-20T23:37:43.771Z,12.30
2019-04-20T23:40:16.589Z,12.20
2019-04-20T23:42:47.644Z,12.20
2019-04-20T23:45:28.249Z,12.20
2019-04-20T23:47:57.701Z,12.10
2019-04-20T23:50:40.837Z,12.10
2019-04-20T23:53:14.074Z,12.20
2019-04-20T23:55:25.810Z,12.20
2019-04-20T23:57:59.552Z,12.20
